x

Point Arguello, Ca (ptgc1) Weather Station

9:00pm - Sat 19th Aug 2017 All times are PDT. -7 hours from GMT.

  • Wind
    6mph, 7mph gusts
  • Air Temp 61°f
  • Sea Pressure 1013.4mb
  • Point Arguello, Ca
  • Point Arguello, Ca

More Historic Weather Station data

Upgrade to MSW Pro to gain access to the past 30 days of data for over 8000 Wavebouys and Weather Stations around the globe.

Join

Comparision Forecast

View Surf forecast
   
Sat 08/19 9:00pm 6 7 mph 1013.4mb 61f
8:00pm 7 8 mph 1013.3mb 61f
7:00pm 2 2 mph 1013.1mb 61f
6:00pm 2 3 mph 1013.2mb 61f
5:00pm 5 8 mph 1013.3mb 62f
4:00pm 9 14 mph 1013.7mb 61f
3:00pm 13 15 mph 1014.2mb 60f
2:00pm 11 15 mph 1014.5mb 60f
1:00pm 10 14 mph 1014.8mb 60f
12:00pm 2 3 mph 1015.2mb 60f
11:00am 5 5 mph 1015.5mb 60f
10:00am 6 6 mph 1015.4mb 59f
9:00am 7 7 mph 1015.4mb 59f
8:00am 6 8 mph 1015.3mb 59f
7:00am 6 7 mph 1014.9mb 58f
6:00am 9 10 mph 1014.5mb 58f
5:00am 13 14 mph 1014mb 58f
4:00am 11 11 mph 1014mb 58f
3:00am 10 11 mph 1014.2mb 59f
2:00am 9 11 mph 1014.6mb 59f
1:00am 11 14 mph 1014.5mb 59f
12:00am 14 16 mph 1014.7mb 59f
Fri 08/18 11:00pm 16 18 mph 1014.8mb 59f
10:00pm 21 23 mph 1014.8mb 60f
9:00pm 22 24 mph 1014.6mb 60f
8:00pm 24 26 mph 1014.5mb 60f
7:00pm 20 21 mph 1014.8mb 60f
6:00pm 20 20 mph 1015mb 60f
5:00pm 16 17 mph 1015.4mb 60f
4:00pm 13 14 mph 1016.1mb 60f
3:00pm 11 13 mph 1016.6mb 60f
2:00pm 11 13 mph 1017mb 60f
1:00pm 11 13 mph 1017mb 60f
12:00pm 13 13 mph 1017.2mb 59f
11:00am 14 15 mph 1017.3mb 60f
10:00am 15 16 mph 1017.1mb 59f
9:00am 16 17 mph 1016.8mb 59f
8:00am 17 20 mph 1016.5mb 59f
7:00am 20 21 mph 1016.1mb 59f
6:00am 16 17 mph 1015.7mb 59f
5:00am 11 14 mph 1015.5mb 59f
4:00am 13 14 mph 1015.5mb 59f
3:00am 14 15 mph 1015.6mb 60f
2:00am 15 16 mph 1015.9mb 60f
1:00am 14 16 mph 1016.3mb 60f
12:00am 14 16 mph 1016.5mb 61f
Thu 08/17 11:00pm 15 17 mph 1016.7mb 61f
10:00pm 17 18 mph 1016.3mb 61f
9:00pm 15 17 mph 1016.2mb 61f
8:00pm 16 17 mph 1016mb 61f
7:00pm 13 15 mph 1015.8mb 61f
6:00pm 16 18 mph 1015.8mb 61f
5:00pm 14 15 mph 1015.8mb 61f
4:00pm 13 13 mph 1016.3mb 60f
3:00pm 11 13 mph 1016.7mb 60f
2:00pm 10 11 mph 1017.3mb 60f
1:00pm 9 10 mph 1017.5mb 60f
12:00pm 10 11 mph 1017.8mb 59f
11:00am 11 13 mph 1017.9mb 59f
10:00am 14 15 mph 1017.6mb 59f
9:00am 16 17 mph 1017.3mb 59f
8:00am 14 16 mph 1016.9mb 59f
7:00am 14 15 mph 1016.3mb 59f
6:00am 13 14 mph 1015.8mb 59f
5:00am 14 15 mph 1015.4mb 59f
4:00am 16 17 mph 1015.4mb 59f
3:00am 16 17 mph 1015.4mb 59f
2:00am 14 16 mph 1015.6mb 59f
1:00am 15 16 mph 1015.7mb 59f
12:00am 15 17 mph 1015.9mb 60f
Wed 08/16 11:00pm 16 17 mph 1015.9mb 60f
10:00pm 15 16 mph 1016.1mb 60f
9:00pm 14 16 mph 1015.8mb 60f
8:00pm 15 16 mph 1015.3mb 60f
7:00pm 14 15 mph 1015.1mb 60f
6:00pm 14 16 mph 1015.4mb 61f
5:00pm 14 16 mph 1015.5mb 60f
4:00pm 13 14 mph 1015.8mb 59f
3:00pm 11 13 mph 1016.2mb 59f
2:00pm 9 10 mph 1016.3mb 59f
1:00pm 10 10 mph 1016.7mb 59f
12:00pm 13 13 mph 1016.6mb 58f
11:00am 13 14 mph 1016.4mb 59f
10:00am 13 13 mph 1016.5mb 59f
9:00am 14 14 mph 1016.4mb 59f
8:00am 14 15 mph 1016.1mb 59f
7:00am 13 14 mph 1015.5mb 59f
6:00am 13 15 mph 1015mb 59f